KPF17 LOWI-LFMN
Flight info
| Callsign | KPF17 |
|---|---|
| Flight time | 1h 4m |
| Altitude | 19000 |
| Route | BRENO M726 NAXAV/N0458F350 DCT RENTA DCT ATPED DCT LUSIL DCT EVANO DCT ENOBA Z185 ASBOP/N0396F190 Z185 BORDI |
| Aircraft | CL60/M-SBDE1E2E3FGHIJ1J4J5J7M3RWXYZ/LB1V1D1 |
Departure
| Time | 2026-05-04 13:25 |
|---|---|
| Airport | Innsbruck Airport (LOWI) |
Arrival
| Time | 2026-05-04 14:29 |
|---|---|
| Airport | Nice-Côte d'Azur Airport (LFMN) |
| Time | Latitude | Longitude | Altitude | Speed | Heading |
|---|---|---|---|---|---|
| 2026-05-04 12:56 | 47.25910 | 11.35337 | 1926 ft | 0 kts | 274° |
| 2026-05-04 13:21 | 47.25911 | 11.35302 | 1925 ft | 10 kts | 269° |
| 2026-05-04 13:21 | 47.25896 | 11.35167 | 1926 ft | 15 kts | 261° |
| 2026-05-04 13:21 | 47.25877 | 11.35002 | 1926 ft | 17 kts | 259° |
| 2026-05-04 13:22 | 47.25857 | 11.34810 | 1927 ft | 20 kts | 261° |
| 2026-05-04 13:22 | 47.25834 | 11.34598 | 1929 ft | 22 kts | 260° |
| 2026-05-04 13:22 | 47.25811 | 11.34361 | 1930 ft | 24 kts | 260° |
| 2026-05-04 13:22 | 47.25787 | 11.34154 | 1931 ft | 10 kts | 260° |
| 2026-05-04 13:23 | 47.25775 | 11.34045 | 1931 ft | 12 kts | 265° |
| 2026-05-04 13:23 | 47.25798 | 11.33910 | 1931 ft | 15 kts | 301° |
| 2026-05-04 13:23 | 47.25863 | 11.33775 | 1932 ft | 15 kts | 305° |
| 2026-05-04 13:23 | 47.25923 | 11.33653 | 1932 ft | 9 kts | 310° |
| 2026-05-04 13:24 | 47.25948 | 11.33663 | 1932 ft | 0 kts | 81° |
| 2026-05-04 13:24 | 47.25952 | 11.33707 | 1932 ft | 30 kts | 82° |
| 2026-05-04 13:24 | 47.26052 | 11.34577 | 1928 ft | 134 kts | 79° |
| 2026-05-04 13:25 | 47.26431 | 11.37980 | 3295 ft | 192 kts | 83° |
| 2026-05-04 13:25 | 47.26628 | 11.39982 | 4192 ft | 216 kts | 83° |
| 2026-05-04 13:25 | 47.26897 | 11.42308 | 5081 ft | 246 kts | 81° |
| 2026-05-04 13:25 | 47.27246 | 11.44769 | 6448 ft | 251 kts | 77° |
| 2026-05-04 13:26 | 47.27748 | 11.47029 | 8252 ft | 234 kts | 70° |
| 2026-05-04 13:26 | 47.28337 | 11.49095 | 9820 ft | 221 kts | 70° |
| 2026-05-04 13:26 | 47.28898 | 11.51058 | 11190 ft | 213 kts | 70° |
| 2026-05-04 13:26 | 47.29452 | 11.53003 | 12415 ft | 210 kts | 70° |
| 2026-05-04 13:27 | 47.30010 | 11.54970 | 13467 ft | 212 kts | 69° |
| 2026-05-04 13:27 | 47.30559 | 11.56993 | 14329 ft | 224 kts | 76° |
| 2026-05-04 13:27 | 47.30575 | 11.59506 | 14364 ft | 270 kts | 111° |
| 2026-05-04 13:27 | 47.29455 | 11.61928 | 14389 ft | 311 kts | 142° |
| 2026-05-04 13:28 | 47.27396 | 11.63312 | 14595 ft | 341 kts | 172° |
| 2026-05-04 13:28 | 47.24989 | 11.63016 | 15251 ft | 356 kts | 199° |
| 2026-05-04 13:28 | 47.22850 | 11.61225 | 16152 ft | 364 kts | 215° |
| 2026-05-04 13:28 | 47.20788 | 11.59046 | 17130 ft | 369 kts | 215° |
| 2026-05-04 13:29 | 47.18680 | 11.56859 | 18133 ft | 373 kts | 215° |
| 2026-05-04 13:29 | 47.16547 | 11.54692 | 19089 ft | 377 kts | 214° |
| 2026-05-04 13:29 | 47.14339 | 11.52497 | 19917 ft | 384 kts | 214° |
| 2026-05-04 13:29 | 47.12127 | 11.50345 | 20729 ft | 390 kts | 213° |
| 2026-05-04 13:30 | 47.09834 | 11.48165 | 21573 ft | 395 kts | 213° |
| 2026-05-04 13:30 | 47.07486 | 11.45983 | 22385 ft | 400 kts | 212° |
| 2026-05-04 13:30 | 47.05122 | 11.43838 | 23167 ft | 404 kts | 212° |
| 2026-05-04 13:30 | 47.02695 | 11.41688 | 23924 ft | 409 kts | 212° |
| 2026-05-04 13:31 | 47.00226 | 11.39567 | 24654 ft | 414 kts | 210° |
| 2026-05-04 13:31 | 46.97555 | 11.37892 | 25367 ft | 420 kts | 197° |
| 2026-05-04 13:31 | 46.94650 | 11.37267 | 26017 ft | 426 kts | 186° |
| 2026-05-04 13:31 | 46.91682 | 11.36958 | 26630 ft | 430 kts | 185° |
| 2026-05-04 13:32 | 46.88663 | 11.36633 | 27252 ft | 433 kts | 186° |
| 2026-05-04 13:32 | 46.85622 | 11.36304 | 27812 ft | 437 kts | 186° |
| 2026-05-04 13:32 | 46.82578 | 11.35974 | 28353 ft | 440 kts | 186° |
| 2026-05-04 13:32 | 46.79498 | 11.35642 | 28864 ft | 442 kts | 186° |
| 2026-05-04 13:33 | 46.76394 | 11.35316 | 29283 ft | 445 kts | 185° |
| 2026-05-04 13:33 | 46.73282 | 11.34995 | 29634 ft | 449 kts | 185° |
| 2026-05-04 13:33 | 46.70163 | 11.34675 | 30072 ft | 450 kts | 185° |
| 2026-05-04 13:33 | 46.67047 | 11.34357 | 30600 ft | 448 kts | 185° |
| 2026-05-04 13:34 | 46.63966 | 11.34042 | 31161 ft | 446 kts | 185° |
| 2026-05-04 13:34 | 46.60859 | 11.33724 | 31764 ft | 443 kts | 186° |
| 2026-05-04 13:34 | 46.57821 | 11.33282 | 32324 ft | 439 kts | 190° |
| 2026-05-04 13:34 | 46.54826 | 11.32317 | 32869 ft | 435 kts | 198° |
| 2026-05-04 13:35 | 46.52000 | 11.30833 | 33363 ft | 432 kts | 205° |
| 2026-05-04 13:35 | 46.46869 | 11.26385 | 34259 ft | 428 kts | 219° |
| 2026-05-04 13:35 | 46.44679 | 11.23542 | 34657 ft | 427 kts | 226° |
| 2026-05-04 13:36 | 46.42719 | 11.20251 | 34981 ft | 427 kts | 233° |
| 2026-05-04 13:36 | 46.39698 | 11.12772 | 35106 ft | 437 kts | 243° |
| 2026-05-04 13:37 | 46.36980 | 11.04887 | 35134 ft | 440 kts | 243° |
| 2026-05-04 13:37 | 46.34230 | 10.96945 | 35126 ft | 439 kts | 243° |
| 2026-05-04 13:38 | 46.31488 | 10.89046 | 35128 ft | 438 kts | 243° |
| 2026-05-04 13:38 | 46.28749 | 10.81160 | 35122 ft | 437 kts | 243° |
| 2026-05-04 13:39 | 46.26023 | 10.73315 | 35121 ft | 436 kts | 243° |
| 2026-05-04 13:39 | 46.23302 | 10.65511 | 35119 ft | 436 kts | 243° |
| 2026-05-04 13:40 | 46.20559 | 10.57667 | 35127 ft | 435 kts | 243° |
| 2026-05-04 13:40 | 46.17841 | 10.49915 | 35135 ft | 436 kts | 243° |
| 2026-05-04 13:41 | 46.15093 | 10.42103 | 35127 ft | 435 kts | 243° |
| 2026-05-04 13:41 | 46.12352 | 10.34330 | 35150 ft | 435 kts | 243° |
| 2026-05-04 13:42 | 46.08222 | 10.22666 | 35131 ft | 435 kts | 243° |
| 2026-05-04 13:42 | 46.05467 | 10.14914 | 35151 ft | 433 kts | 243° |
| 2026-05-04 13:43 | 46.02299 | 10.07608 | 35144 ft | 434 kts | 234° |
| 2026-05-04 13:43 | 45.98711 | 10.00598 | 35147 ft | 433 kts | 234° |
| 2026-05-04 13:44 | 45.95139 | 9.93618 | 35151 ft | 433 kts | 234° |
| 2026-05-04 13:44 | 45.91571 | 9.86657 | 35132 ft | 433 kts | 234° |
| 2026-05-04 13:45 | 45.88004 | 9.79715 | 35124 ft | 432 kts | 234° |
| 2026-05-04 13:45 | 45.84438 | 9.72789 | 35101 ft | 431 kts | 234° |
| 2026-05-04 13:46 | 45.80877 | 9.65887 | 35103 ft | 430 kts | 234° |
| 2026-05-04 13:46 | 45.77313 | 9.58995 | 35094 ft | 430 kts | 234° |
| 2026-05-04 13:47 | 45.73730 | 9.52083 | 35091 ft | 429 kts | 234° |
| 2026-05-04 13:47 | 45.70169 | 9.45230 | 35087 ft | 429 kts | 234° |
| 2026-05-04 13:48 | 45.66609 | 9.38392 | 35079 ft | 428 kts | 234° |
| 2026-05-04 13:48 | 45.63044 | 9.31563 | 35078 ft | 427 kts | 234° |
| 2026-05-04 13:49 | 45.59473 | 9.24736 | 35070 ft | 427 kts | 234° |
| 2026-05-04 13:49 | 45.55925 | 9.17972 | 35068 ft | 426 kts | 234° |
| 2026-05-04 13:50 | 45.52370 | 9.11210 | 35070 ft | 426 kts | 233° |
| 2026-05-04 13:50 | 45.48804 | 9.04441 | 35066 ft | 426 kts | 234° |
| 2026-05-04 13:51 | 45.45235 | 8.97686 | 35073 ft | 426 kts | 234° |
| 2026-05-04 13:51 | 45.41685 | 8.90981 | 35070 ft | 425 kts | 234° |
| 2026-05-04 13:52 | 45.36159 | 8.81097 | 35074 ft | 425 kts | 226° |
| 2026-05-04 13:53 | 45.31465 | 8.75928 | 35070 ft | 429 kts | 213° |
| 2026-05-04 13:53 | 45.25948 | 8.72593 | 35053 ft | 433 kts | 201° |
| 2026-05-04 13:54 | 45.17285 | 8.68753 | 35052 ft | 433 kts | 201° |
| 2026-05-04 13:55 | 45.08636 | 8.64923 | 35048 ft | 433 kts | 201° |
| 2026-05-04 13:55 | 44.99976 | 8.61099 | 35049 ft | 434 kts | 201° |
| 2026-05-04 13:56 | 44.94161 | 8.58539 | 35052 ft | 434 kts | 201° |
| 2026-05-04 13:57 | 44.85494 | 8.54733 | 35055 ft | 434 kts | 201° |
| 2026-05-04 13:58 | 44.73972 | 8.49690 | 34935 ft | 436 kts | 201° |
| 2026-05-04 13:58 | 44.68129 | 8.47140 | 33868 ft | 436 kts | 201° |
| 2026-05-04 13:58 | 44.65207 | 8.45868 | 33293 ft | 437 kts | 201° |
| 2026-05-04 13:59 | 44.62313 | 8.44608 | 32745 ft | 437 kts | 201° |
| 2026-05-04 13:59 | 44.59411 | 8.43346 | 32172 ft | 438 kts | 201° |
| 2026-05-04 13:59 | 44.53541 | 8.40798 | 31023 ft | 441 kts | 201° |
| 2026-05-04 14:00 | 44.50613 | 8.39529 | 30437 ft | 443 kts | 201° |
| 2026-05-04 14:00 | 44.44719 | 8.36981 | 29260 ft | 438 kts | 200° |
| 2026-05-04 14:00 | 44.41833 | 8.35736 | 28682 ft | 434 kts | 200° |
| 2026-05-04 14:01 | 44.38983 | 8.34506 | 28127 ft | 430 kts | 200° |
| 2026-05-04 14:01 | 44.36073 | 8.33252 | 27536 ft | 427 kts | 200° |
| 2026-05-04 14:01 | 44.30661 | 8.30200 | 26406 ft | 415 kts | 216° |
| 2026-05-04 14:02 | 44.28538 | 8.27549 | 25842 ft | 408 kts | 230° |
| 2026-05-04 14:02 | 44.26852 | 8.24350 | 25258 ft | 406 kts | 236° |
| 2026-05-04 14:02 | 44.25256 | 8.21106 | 24742 ft | 403 kts | 235° |
| 2026-05-04 14:02 | 44.23668 | 8.17896 | 24202 ft | 403 kts | 235° |
| 2026-05-04 14:03 | 44.22074 | 8.14680 | 23681 ft | 402 kts | 235° |
| 2026-05-04 14:03 | 44.20488 | 8.11484 | 23149 ft | 400 kts | 235° |
| 2026-05-04 14:03 | 44.18898 | 8.08285 | 22610 ft | 398 kts | 235° |
| 2026-05-04 14:03 | 44.17315 | 8.05105 | 22085 ft | 395 kts | 235° |
| 2026-05-04 14:04 | 44.14214 | 7.98885 | 21043 ft | 390 kts | 235° |
| 2026-05-04 14:04 | 44.12664 | 7.95782 | 20542 ft | 386 kts | 235° |
| 2026-05-04 14:04 | 44.11149 | 7.92752 | 20023 ft | 385 kts | 235° |
| 2026-05-04 14:05 | 44.08120 | 7.86706 | 18995 ft | 378 kts | 234° |
| 2026-05-04 14:05 | 44.06614 | 7.83703 | 18494 ft | 374 kts | 234° |
| 2026-05-04 14:05 | 44.05121 | 7.80732 | 17992 ft | 372 kts | 234° |
| 2026-05-04 14:06 | 44.03654 | 7.77815 | 17516 ft | 370 kts | 234° |
| 2026-05-04 14:06 | 44.02174 | 7.74873 | 16999 ft | 368 kts | 234° |
| 2026-05-04 14:06 | 44.00716 | 7.71975 | 16633 ft | 363 kts | 234° |
| 2026-05-04 14:06 | 43.99257 | 7.69078 | 16636 ft | 361 kts | 234° |
| 2026-05-04 14:07 | 43.97832 | 7.66253 | 16927 ft | 360 kts | 234° |
| 2026-05-04 14:07 | 43.96359 | 7.63335 | 16798 ft | 373 kts | 234° |
| 2026-05-04 14:07 | 43.94868 | 7.60385 | 16736 ft | 369 kts | 234° |
| 2026-05-04 14:07 | 43.93388 | 7.57456 | 16652 ft | 368 kts | 234° |
| 2026-05-04 14:08 | 43.91922 | 7.54559 | 16589 ft | 366 kts | 234° |
| 2026-05-04 14:08 | 43.90454 | 7.51663 | 16533 ft | 366 kts | 234° |
| 2026-05-04 14:08 | 43.88995 | 7.48786 | 16440 ft | 365 kts | 234° |
| 2026-05-04 14:08 | 43.87368 | 7.46120 | 16381 ft | 364 kts | 222° |
| 2026-05-04 14:09 | 43.82862 | 7.43066 | 16210 ft | 365 kts | 191° |
| 2026-05-04 14:09 | 43.80298 | 7.42993 | 16103 ft | 368 kts | 174° |
| 2026-05-04 14:10 | 43.75679 | 7.45868 | 15913 ft | 373 kts | 144° |
| 2026-05-04 14:10 | 43.73657 | 7.48139 | 15842 ft | 373 kts | 143° |
| 2026-05-04 14:10 | 43.71668 | 7.50367 | 15782 ft | 373 kts | 144° |
| 2026-05-04 14:10 | 43.69638 | 7.52664 | 15711 ft | 374 kts | 141° |
| 2026-05-04 14:11 | 43.67954 | 7.55378 | 15664 ft | 378 kts | 124° |
| 2026-05-04 14:11 | 43.65992 | 7.62126 | 15501 ft | 380 kts | 111° |
| 2026-05-04 14:11 | 43.65108 | 7.65597 | 15437 ft | 380 kts | 111° |
| 2026-05-04 14:12 | 43.64235 | 7.69011 | 15354 ft | 380 kts | 111° |
| 2026-05-04 14:12 | 43.63359 | 7.72432 | 15298 ft | 379 kts | 111° |
| 2026-05-04 14:12 | 43.61651 | 7.79083 | 14197 ft | 367 kts | 112° |
| 2026-05-04 14:13 | 43.60793 | 7.82409 | 13411 ft | 366 kts | 111° |
| 2026-05-04 14:13 | 43.59951 | 7.85673 | 12700 ft | 363 kts | 112° |
| 2026-05-04 14:13 | 43.59110 | 7.88925 | 12009 ft | 358 kts | 111° |
| 2026-05-04 14:13 | 43.58295 | 7.92075 | 11346 ft | 352 kts | 111° |
| 2026-05-04 14:14 | 43.57472 | 7.95250 | 10650 ft | 348 kts | 111° |
| 2026-05-04 14:14 | 43.55708 | 8.01103 | 10212 ft | 307 kts | 129° |
| 2026-05-04 14:14 | 43.54108 | 8.02825 | 10056 ft | 288 kts | 159° |
| 2026-05-04 14:15 | 43.50241 | 8.03070 | 9319 ft | 277 kts | 190° |
| 2026-05-04 14:15 | 43.46682 | 8.01202 | 8415 ft | 276 kts | 211° |
| 2026-05-04 14:16 | 43.43845 | 7.97576 | 7436 ft | 279 kts | 233° |
| 2026-05-04 14:16 | 43.42886 | 7.95287 | 7025 ft | 277 kts | 245° |
| 2026-05-04 14:17 | 43.42003 | 7.90186 | 6750 ft | 280 kts | 264° |
| 2026-05-04 14:17 | 43.41858 | 7.87495 | 6624 ft | 280 kts | 265° |
| 2026-05-04 14:17 | 43.41609 | 7.82145 | 6365 ft | 282 kts | 270° |
| 2026-05-04 14:18 | 43.41929 | 7.79483 | 6243 ft | 282 kts | 286° |
| 2026-05-04 14:18 | 43.43066 | 7.74364 | 5996 ft | 281 kts | 287° |
| 2026-05-04 14:19 | 43.44201 | 7.69222 | 5737 ft | 280 kts | 286° |
| 2026-05-04 14:19 | 43.44770 | 7.66636 | 5611 ft | 281 kts | 287° |
| 2026-05-04 14:19 | 43.45330 | 7.64089 | 5494 ft | 280 kts | 286° |
| 2026-05-04 14:19 | 43.45898 | 7.61498 | 5370 ft | 280 kts | 287° |
| 2026-05-04 14:20 | 43.46463 | 7.58919 | 5240 ft | 280 kts | 287° |
| 2026-05-04 14:20 | 43.47020 | 7.56374 | 5120 ft | 279 kts | 287° |
| 2026-05-04 14:20 | 43.47458 | 7.53778 | 4993 ft | 278 kts | 273° |
| 2026-05-04 14:21 | 43.46797 | 7.48584 | 4748 ft | 276 kts | 257° |
| 2026-05-04 14:21 | 43.46368 | 7.45998 | 4628 ft | 276 kts | 256° |
| 2026-05-04 14:21 | 43.45939 | 7.43418 | 4495 ft | 276 kts | 256° |
| 2026-05-04 14:21 | 43.45513 | 7.40860 | 4364 ft | 275 kts | 256° |
| 2026-05-04 14:22 | 43.45084 | 7.38288 | 4244 ft | 275 kts | 256° |
| 2026-05-04 14:22 | 43.44655 | 7.35717 | 4117 ft | 274 kts | 256° |
| 2026-05-04 14:22 | 43.44230 | 7.33177 | 3998 ft | 274 kts | 256° |
| 2026-05-04 14:22 | 43.43801 | 7.30614 | 3870 ft | 274 kts | 256° |
| 2026-05-04 14:23 | 43.42961 | 7.25605 | 3637 ft | 258 kts | 256° |
| 2026-05-04 14:23 | 43.42843 | 7.23260 | 3534 ft | 245 kts | 278° |
| 2026-05-04 14:23 | 43.43377 | 7.21082 | 3424 ft | 231 kts | 301° |
| 2026-05-04 14:24 | 43.44324 | 7.19366 | 3323 ft | 218 kts | 313° |
| 2026-05-04 14:24 | 43.45305 | 7.17829 | 3220 ft | 210 kts | 312° |
| 2026-05-04 14:24 | 43.46411 | 7.16561 | 3102 ft | 204 kts | 338° |
| 2026-05-04 14:24 | 43.47774 | 7.16164 | 2979 ft | 200 kts | 359° |
| 2026-05-04 14:25 | 43.49178 | 7.16055 | 2952 ft | 200 kts | 359° |
| 2026-05-04 14:25 | 43.52014 | 7.15792 | 2733 ft | 209 kts | 358° |
| 2026-05-04 14:25 | 43.53480 | 7.15651 | 2471 ft | 206 kts | 358° |
| 2026-05-04 14:26 | 43.54872 | 7.15515 | 2217 ft | 198 kts | 358° |
| 2026-05-04 14:26 | 43.56257 | 7.15383 | 1983 ft | 196 kts | 358° |
| 2026-05-04 14:26 | 43.57634 | 7.15241 | 1856 ft | 197 kts | 358° |
| 2026-05-04 14:26 | 43.59000 | 7.15248 | 1745 ft | 195 kts | 5° |
| 2026-05-04 14:27 | 43.60360 | 7.15415 | 1661 ft | 193 kts | 11° |
| 2026-05-04 14:27 | 43.61596 | 7.15879 | 1390 ft | 179 kts | 26° |
| 2026-05-04 14:27 | 43.62571 | 7.16735 | 1101 ft | 155 kts | 42° |
| 2026-05-04 14:27 | 43.63273 | 7.17661 | 882 ft | 126 kts | 50° |
| 2026-05-04 14:28 | 43.63851 | 7.18503 | 588 ft | 117 kts | 51° |
| 2026-05-04 14:28 | 43.64406 | 7.19298 | 356 ft | 114 kts | 52° |
| 2026-05-04 14:28 | 43.64961 | 7.20082 | 155 ft | 114 kts | 52° |
| 2026-05-04 14:28 | 43.65493 | 7.20831 | 32 ft | 100 kts | 46° |
| 2026-05-04 14:29 | 43.66136 | 7.21717 | 25 ft | 19 kts | 49° |
| 2026-05-04 14:29 | 43.66288 | 7.21626 | 26 ft | 13 kts | 267° |
| 2026-05-04 14:30 | 43.66225 | 7.21517 | 26 ft | 17 kts | 225° |
| 2026-05-04 14:30 | 43.66130 | 7.21387 | 26 ft | 17 kts | 225° |
| 2026-05-04 14:30 | 43.65921 | 7.21100 | 26 ft | 21 kts | 223° |
| 2026-05-04 14:31 | 43.65855 | 7.21010 | 27 ft | 10 kts | 224° |
| 2026-05-04 14:31 | 43.65732 | 7.20839 | 26 ft | 10 kts | 225° |
| 2026-05-04 14:32 | 43.65687 | 7.20727 | 27 ft | 4 kts | 317° |
| 2026-05-04 14:32 | 43.65712 | 7.20694 | 27 ft | 5 kts | 313° |
| 2026-05-04 14:32 | 43.65722 | 7.20679 | 27 ft | 0 kts | 313° |